Time;durP1;ratioP1;P1;durP2;ratioP2;P2;SDS_P1;SDS_P2;PMS_P1;PMS_P2;Temp;Humidity;BMP_temperature;BMP_pressure;BME280_temperature;BME280_humidity;BME280_pressure;Samples;Min_cycle;Max_cycle;Signal;HPM_P1;HPM_P2
2022/04/14 00:01:54;;;;;;;9.13;5.10;;;11.90;99.90;;;;;;5114467;28;20048;-80
2022/04/14 00:04:19;;;;;;;13.05;6.05;;;11.90;99.90;;;;;;5075602;28;20058;-79
2022/04/14 00:06:45;;;;;;;9.95;5.28;;;11.90;99.90;;;;;;5091588;28;20043;-79
2022/04/14 00:09:11;;;;;;;9.75;5.78;;;11.90;99.90;;;;;;5110245;28;20101;-81
2022/04/14 00:11:38;;;;;;;10.57;5.68;;;11.90;99.90;;;;;;5093824;28;20044;-81
2022/04/14 00:14:05;;;;;;;10.43;5.32;;;11.90;99.90;;;;;;5092371;28;20044;-80
2022/04/14 00:16:30;;;;;;;12.48;5.53;;;11.80;99.90;;;;;;5091223;28;20105;-80
2022/04/14 00:18:56;;;;;;;10.10;6.10;;;11.90;99.90;;;;;;5089101;28;20071;-80
2022/04/14 00:21:22;;;;;;;10.80;6.00;;;11.80;99.90;;;;;;5090016;28;20089;-79
2022/04/14 00:23:47;;;;;;;12.40;6.40;;;11.80;99.90;;;;;;5089568;28;20039;-80
2022/04/14 00:26:13;;;;;;;9.23;5.28;;;11.80;99.90;;;;;;5089397;28;20135;-80
2022/04/14 00:28:39;;;;;;;14.05;6.18;;;11.70;99.90;;;;;;5108564;28;20054;-80
2022/04/14 00:31:04;;;;;;;13.85;5.97;;;11.70;99.90;;;;;;5088831;28;20044;-79
2022/04/14 00:33:31;;;;;;;10.43;5.38;;;11.60;99.90;;;;;;5090242;28;20055;-79
2022/04/14 00:35:57;;;;;;;15.35;6.47;;;11.60;99.90;;;;;;5088385;28;20486;-79
2022/04/14 00:38:23;;;;;;;11.05;6.82;;;11.60;99.90;;;;;;5056197;28;20046;-79
2022/04/14 00:40:50;;;;;;;9.35;6.18;;;12.10;99.90;;;;;;5088910;28;20035;-80
2022/04/14 00:43:20;;;;;;;12.10;6.45;;;11.60;99.90;;;;;;5072140;28;20482;-80
2022/04/14 00:45:49;;;;;;;12.57;6.30;;;11.50;99.90;;;;;;5072992;28;20047;-80
2022/04/14 00:48:15;;;;;;;9.65;5.82;;;11.50;99.90;;;;;;5089078;28;20044;-80
2022/04/14 00:50:41;;;;;;;13.13;6.25;;;11.50;99.90;;;;;;5089972;28;20043;-80
2022/04/14 00:53:06;;;;;;;11.85;6.85;;;11.50;99.90;;;;;;5107045;28;20040;-80
2022/04/14 00:55:32;;;;;;;13.32;7.40;;;12.10;99.90;;;;;;5108031;28;20051;-80
2022/04/14 00:57:58;;;;;;;10.50;6.72;;;11.40;99.90;;;;;;5088830;28;20111;-78
2022/04/14 01:00:24;;;;;;;12.60;7.07;;;12.10;99.90;;;;;;5089165;28;20486;-79
2022/04/14 01:02:49;;;;;;;13.55;7.45;;;11.30;99.90;;;;;;5089826;28;20039;-79
2022/04/14 01:05:15;;;;;;;16.63;8.00;;;11.30;99.90;;;;;;5106559;28;20040;-79
2022/04/14 01:07:44;;;;;;;18.40;7.38;;;11.20;99.90;;;;;;5073323;28;20084;-79
2022/04/14 01:10:10;;;;;;;10.98;7.28;;;11.10;99.90;;;;;;5071657;28;20040;-80
2022/04/14 01:12:36;;;;;;;15.13;7.30;;;11.30;99.90;;;;;;5075267;28;20067;-79
2022/04/14 01:15:02;;;;;;;13.30;7.30;;;11.10;99.90;;;;;;5092826;28;20051;-79
2022/04/14 01:17:28;;;;;;;15.65;8.43;;;11.00;99.90;;;;;;5110908;28;20051;-79
2022/04/14 01:19:54;;;;;;;11.15;8.05;;;12.20;99.90;;;;;;5076448;28;20047;-80
2022/04/14 01:22:28;;;;;;;12.88;7.53;;;11.00;99.90;;;;;;5092430;28;20054;-79
2022/04/14 01:24:56;;;;;;;13.13;8.05;;;11.00;99.90;;;;;;5093733;28;20047;-79
2022/04/14 01:27:26;;;;;;;14.55;8.02;;;10.90;99.90;;;;;;5075269;28;20050;-79
2022/04/14 01:29:52;;;;;;;15.93;8.57;;;10.90;99.90;;;;;;5092813;28;20086;-79
2022/04/14 01:32:22;;;;;;;17.15;8.30;;;11.80;99.90;;;;;;5093165;28;20123;-79
2022/04/14 01:34:49;;;;;;;17.70;9.00;;;10.90;99.90;;;;;;5110270;28;20059;-80
2022/04/14 01:37:15;;;;;;;18.63;9.02;;;10.80;99.90;;;;;;5093414;28;20559;-79
2022/04/14 01:39:41;;;;;;;16.42;9.45;;;10.80;99.90;;;;;;5091595;28;20043;-80
2022/04/14 01:42:07;;;;;;;15.07;8.60;;;10.80;99.90;;;;;;5111762;28;20036;-80
2022/04/14 01:44:33;;;;;;;17.48;9.23;;;10.70;99.90;;;;;;5091964;28;20046;-80
2022/04/14 01:46:59;;;;;;;16.75;9.07;;;11.50;99.90;;;;;;5093614;28;20039;-80
2022/04/14 01:49:25;;;;;;;18.85;8.82;;;10.70;99.90;;;;;;5095092;28;20032;-80
2022/04/14 01:51:50;;;;;;;15.07;9.52;;;10.70;99.90;;;;;;5101840;28;20047;-80
2022/04/14 01:54:16;;;;;;;15.60;9.57;;;10.70;99.90;;;;;;5106602;28;20043;-80
2022/04/14 01:56:42;;;;;;;18.58;10.07;;;10.70;99.90;;;;;;5076690;28;20130;-79
2022/04/14 01:59:09;;;;;;;17.63;9.77;;;10.70;99.90;;;;;;5111381;28;20232;-79
2022/04/14 02:01:35;;;;;;;19.02;9.98;;;10.60;99.90;;;;;;5074822;28;20527;-78
2022/04/14 02:04:02;;;;;;;18.63;10.20;;;10.70;99.90;;;;;;5075593;28;20044;-79
2022/04/14 02:06:30;;;;;;;21.60;10.90;;;10.60;99.90;;;;;;5092610;28;20130;-79
2022/04/14 02:08:55;;;;;;;22.33;10.82;;;10.70;99.90;;;;;;5109778;28;20078;-79
2022/04/14 02:11:21;;;;;;;21.88;10.80;;;10.60;99.90;;;;;;5111082;28;20079;-80
2022/04/14 02:13:47;;;;;;;22.35;9.95;;;10.50;99.90;;;;;;5091148;28;20389;-79
2022/04/14 02:16:12;;;;;;;18.33;11.80;;;10.50;99.90;;;;;;5058754;28;20043;-79
2022/04/14 02:18:38;;;;;;;24.00;11.23;;;10.50;99.90;;;;;;5057456;28;20051;-78
2022/04/14 02:21:04;;;;;;;20.35;11.50;;;9.30;99.90;;;;;;5075097;28;20055;-79
2022/04/14 02:23:30;;;;;;;18.58;12.43;;;10.40;99.90;;;;;;5090896;28;20575;-79
2022/04/14 02:25:55;;;;;;;21.25;11.35;;;10.50;99.90;;;;;;5109591;28;20039;-80
2022/04/14 02:28:21;;;;;;;22.95;12.55;;;10.40;99.90;;;;;;5110988;28;20027;-79
2022/04/14 02:30:48;;;;;;;22.60;12.38;;;10.30;99.90;;;;;;5090970;28;20517;-80
2022/04/14 02:33:14;;;;;;;21.52;11.15;;;10.30;99.90;;;;;;5092165;28;20051;-80
2022/04/14 02:35:40;;;;;;;26.10;12.65;;;10.30;99.90;;;;;;5090690;28;20078;-80
2022/04/14 02:38:06;;;;;;;18.65;11.95;;;10.20;99.90;;;;;;5091485;28;20484;-79
2022/04/14 02:40:32;;;;;;;19.83;11.77;;;10.20;99.90;;;;;;5091203;28;20076;-80
2022/04/14 02:42:58;;;;;;;22.50;12.70;;;10.20;99.90;;;;;;5073930;28;20044;-80
2022/04/14 02:45:25;;;;;;;23.80;11.90;;;10.20;99.90;;;;;;5110179;28;20071;-80
2022/04/14 02:47:51;;;;;;;20.23;12.02;;;10.20;99.90;;;;;;5108606;28;20040;-79
2022/04/14 02:50:18;;;;;;;21.70;12.02;;;11.30;99.90;;;;;;5110194;28;20043;-80
2022/04/14 02:52:44;;;;;;;25.02;13.10;;;10.20;99.90;;;;;;5090721;28;20432;-79
2022/04/14 02:55:09;;;;;;;28.58;13.50;;;11.10;99.90;;;;;;5109441;28;20042;-80
2022/04/14 02:57:35;;;;;;;21.80;13.88;;;10.10;99.90;;;;;;5074019;28;20043;-80
2022/04/14 03:00:04;;;;;;;22.23;13.18;;;10.00;99.90;;;;;;5090780;28;20050;-80
2022/04/14 03:02:29;;;;;;;25.23;11.85;;;10.00;99.90;;;;;;5091784;28;20040;-79
2022/04/14 03:04:55;;;;;;;22.08;12.25;;;9.90;99.90;;;;;;5108478;28;20043;-80
2022/04/14 03:07:21;;;;;;;21.35;13.10;;;9.90;99.90;;;;;;5110167;28;20096;-78
2022/04/14 03:09:48;;;;;;;23.33;13.48;;;10.20;99.90;;;;;;5073194;28;20043;-79
2022/04/14 03:12:13;;;;;;;23.15;14.15;;;9.80;99.90;;;;;;5109651;28;20585;-79
2022/04/14 03:14:39;;;;;;;21.27;13.15;;;9.80;99.90;;;;;;5109290;28;20115;-80
2022/04/14 03:17:05;;;;;;;22.85;13.02;;;9.90;99.90;;;;;;5090128;28;20425;-79
2022/04/14 03:19:31;;;;;;;32.55;14.43;;;10.40;99.90;;;;;;5091519;28;20556;-79
2022/04/14 03:21:58;;;;;;;25.65;15.60;;;9.80;99.90;;;;;;5108094;28;20579;-80
2022/04/14 03:24:24;;;;;;;27.45;15.13;;;9.70;99.90;;;;;;5074724;28;20078;-79
2022/04/14 03:26:49;;;;;;;25.13;15.00;;;9.70;99.90;;;;;;5073465;28;20035;-80
2022/04/14 03:29:15;;;;;;;25.35;14.98;;;9.70;99.90;;;;;;5091190;28;20051;-80
2022/04/14 03:31:41;;;;;;;27.38;16.92;;;9.70;99.90;;;;;;5093712;28;20036;-80
2022/04/14 03:34:06;;;;;;;22.25;14.85;;;10.70;99.90;;;;;;5073759;28;20054;-79
2022/04/14 03:36:32;;;;;;;29.63;16.02;;;9.70;99.90;;;;;;5076735;28;20044;-79
2022/04/14 03:38:58;;;;;;;34.17;16.45;;;9.60;99.90;;;;;;5071416;28;20487;-79
2022/04/14 03:41:24;;;;;;;26.10;16.45;;;9.60;99.90;;;;;;5088520;28;20102;-80
2022/04/14 03:43:50;;;;;;;34.65;17.15;;;9.60;99.90;;;;;;5087659;28;20047;-79
2022/04/14 03:46:18;;;;;;;26.67;16.02;;;10.20;99.90;;;;;;5086977;28;20144;-78
2022/04/14 03:48:44;;;;;;;31.45;16.90;;;9.50;99.90;;;;;;5053093;28;20044;-81
2022/04/14 03:51:09;;;;;;;26.77;18.15;;;9.50;99.90;;;;;;5053259;28;20449;-79
2022/04/14 03:53:35;;;;;;;34.97;17.17;;;9.50;99.90;;;;;;5087477;28;20044;-80
2022/04/14 03:56:01;;;;;;;35.60;17.23;;;10.70;99.90;;;;;;5068679;28;20321;-80
2022/04/14 03:58:27;;;;;;;29.83;16.92;;;9.50;99.90;;;;;;5088790;28;20475;-79
2022/04/14 04:00:52;;;;;;;35.47;17.48;;;9.50;99.90;;;;;;5087026;28;20083;-79
2022/04/14 04:03:18;;;;;;;23.50;16.23;;;9.40;99.90;;;;;;5088112;28;20044;-79
2022/04/14 04:05:43;;;;;;;29.33;15.98;;;9.40;99.90;;;;;;5085844;28;20052;-79
2022/04/14 04:08:09;;;;;;;26.67;17.00;;;10.20;99.90;;;;;;5086295;28;20043;-80
2022/04/14 04:10:35;;;;;;;30.30;16.88;;;9.30;99.90;;;;;;5088601;28;20040;-79
2022/04/14 04:13:01;;;;;;;30.65;17.65;;;9.30;99.90;;;;;;5085323;28;20047;-78
2022/04/14 04:15:26;;;;;;;34.15;16.98;;;9.20;99.90;;;;;;5086855;28;20052;-79
2022/04/14 04:17:52;;;;;;;29.20;16.67;;;9.70;99.90;;;;;;5085131;28;20040;-79
2022/04/14 04:20:18;;;;;;;32.20;16.60;;;9.20;99.90;;;;;;5088143;28;20036;-79
2022/04/14 04:22:44;;;;;;;30.65;18.30;;;9.20;99.90;;;;;;5068730;28;20083;-79
2022/04/14 04:25:10;;;;;;;28.05;18.38;;;9.20;99.90;;;;;;5086223;28;20142;-80
2022/04/14 04:27:36;;;;;;;34.53;17.85;;;9.30;99.90;;;;;;5087132;28;20494;-80
2022/04/14 04:30:04;;;;;;;30.20;17.25;;;9.10;99.90;;;;;;5085071;28;20043;-80
2022/04/14 04:32:31;;;;;;;34.67;18.38;;;9.10;99.90;;;;;;5088116;28;20107;-80
2022/04/14 04:34:56;;;;;;;31.42;17.65;;;9.10;99.90;;;;;;5051670;28;20052;-80
2022/04/14 04:37:22;;;;;;;32.38;18.38;;;9.10;99.90;;;;;;5069580;28;20040;-80
2022/04/14 04:39:48;;;;;;;39.58;19.15;;;9.10;99.90;;;;;;5051966;28;20131;-79
2022/04/14 04:42:13;;;;;;;30.02;18.90;;;9.10;99.90;;;;;;5085404;28;20047;-79
2022/04/14 04:44:39;;;;;;;35.63;18.25;;;9.00;99.90;;;;;;5086291;28;20375;-80
2022/04/14 04:47:05;;;;;;;32.97;18.58;;;9.00;99.90;;;;;;5084008;28;20052;-79
2022/04/14 04:49:31;;;;;;;29.25;17.77;;;9.00;99.90;;;;;;5070241;28;20070;-78
2022/04/14 04:51:59;;;;;;;33.40;17.38;;;9.00;99.90;;;;;;5084813;28;20146;-79
2022/04/14 04:54:24;;;;;;;31.58;18.98;;;9.00;99.90;;;;;;5086342;28;20056;-79
2022/04/14 04:56:50;;;;;;;30.52;19.23;;;8.90;99.90;;;;;;5086660;28;20044;-80
2022/04/14 04:59:16;;;;;;;30.05;19.10;;;8.90;99.90;;;;;;5086284;28;20079;-79
2022/04/14 05:01:42;;;;;;;33.92;19.65;;;8.90;99.90;;;;;;5070390;28;20113;-79
2022/04/14 05:04:11;;;;;;;32.65;18.58;;;8.90;99.90;;;;;;5052853;28;20419;-79
2022/04/14 05:06:39;;;;;;;34.97;18.42;;;8.80;99.90;;;;;;5090395;28;20048;-81
2022/04/14 05:09:06;;;;;;;32.00;20.42;;;8.80;99.90;;;;;;5090963;28;20044;-81
2022/04/14 05:11:32;;;;;;;32.10;20.25;;;8.90;99.90;;;;;;5078368;28;20050;-79
2022/04/14 05:13:57;;;;;;;36.10;18.65;;;9.00;99.90;;;;;;5071741;28;20044;-80
2022/04/14 05:16:23;;;;;;;40.25;20.73;;;8.90;99.90;;;;;;5085191;28;20048;-81
2022/04/14 05:18:50;;;;;;;32.85;20.60;;;8.80;99.90;;;;;;5052517;28;20525;-79
2022/04/14 05:21:16;;;;;;;42.13;20.92;;;8.90;99.90;;;;;;5084333;28;20052;-80
2022/04/14 05:23:42;;;;;;;40.67;21.02;;;8.90;99.90;;;;;;5087544;28;20525;-79
2022/04/14 05:26:08;;;;;;;34.35;19.80;;;9.70;99.90;;;;;;5085390;28;20036;-79
2022/04/14 05:28:34;;;;;;;45.30;20.70;;;9.00;99.90;;;;;;5086345;28;20040;-78
2022/04/14 05:31:00;;;;;;;38.40;21.02;;;9.10;99.90;;;;;;5085395;28;20436;-79
2022/04/14 05:33:26;;;;;;;36.78;21.00;;;9.20;99.90;;;;;;5087212;28;20075;-78
2022/04/14 05:35:51;;;;;;;36.10;21.20;;;9.30;99.90;;;;;;5072571;28;20096;-79
2022/04/14 05:38:17;;;;;;;35.80;20.40;;;9.30;99.90;;;;;;5088155;28;20372;-79
2022/04/14 05:40:45;;;;;;;32.38;21.33;;;9.40;99.90;;;;;;5108328;28;20600;-78
2022/04/14 05:43:18;;;;;;;40.95;21.13;;;9.50;99.90;;;;;;5087666;28;20040;-79
2022/04/14 05:45:44;;;;;;;;;;;9.60;99.90;;;;;;5072950;28;20126;-80
2022/04/14 05:48:15;;;;;;;32.88;19.65;;;9.60;99.90;;;;;;5088797;28;19920;-78
2022/04/14 05:50:45;;;;;;;40.47;21.60;;;9.60;99.90;;;;;;5071706;28;20050;-78
2022/04/14 05:53:11;;;;;;;37.00;20.55;;;9.70;99.90;;;;;;5072635;28;20043;-79
2022/04/14 05:55:39;;;;;;;37.47;21.27;;;9.70;99.90;;;;;;5070592;28;20089;-78
2022/04/14 05:58:05;;;;;;;41.42;20.48;;;9.80;99.90;;;;;;5057436;28;20054;-79
2022/04/14 06:00:32;;;;;;;38.17;20.13;;;9.90;99.90;;;;;;5074483;28;20490;-78
2022/04/14 06:02:59;;;;;;;35.63;19.80;;;10.00;99.90;;;;;;5075674;28;20050;-78
2022/04/14 06:05:30;;;;;;;32.35;17.90;;;10.00;99.90;;;;;;5075342;28;20032;-79
2022/04/14 06:07:56;;;;;;;33.83;18.42;;;11.10;99.90;;;;;;5074309;28;20054;-77
2022/04/14 06:10:23;;;;;;;33.03;19.67;;;10.00;99.90;;;;;;5092985;28;20416;-77
2022/04/14 06:12:49;;;;;;;31.20;18.17;;;10.10;99.90;;;;;;5091122;28;20406;-78
2022/04/14 06:15:16;;;;;;;34.92;17.67;;;10.30;99.90;;;;;;5110982;28;20601;-78
2022/04/14 06:17:45;;;;;;;29.80;16.92;;;10.30;99.90;;;;;;5091362;28;20135;-78
2022/04/14 06:20:11;;;;;;;31.17;18.27;;;10.30;99.90;;;;;;5092521;28;20123;-78
2022/04/14 06:22:44;;;;;;;28.30;18.63;;;10.50;99.90;;;;;;5110091;28;20428;-78
2022/04/14 06:25:13;;;;;;;36.08;20.05;;;10.50;99.90;;;;;;5109382;28;20044;-78
2022/04/14 06:27:44;;;;;;;37.65;19.00;;;10.60;99.90;;;;;;5110845;28;20491;-77
2022/04/14 06:30:11;;;;;;;33.67;19.38;;;10.70;99.90;;;;;;5108797;28;20056;-77
2022/04/14 06:32:37;;;;;;;32.85;17.58;;;10.80;99.90;;;;;;5110683;28;20040;-77
2022/04/14 06:35:05;;;;;;;35.88;17.92;;;10.90;99.90;;;;;;5090597;28;20410;-78
2022/04/14 06:37:30;;;;;;;34.47;17.65;;;11.00;99.90;;;;;;5091474;28;20087;-77
2022/04/14 06:39:56;;;;;;;30.45;17.45;;;11.10;99.90;;;;;;5110100;28;20082;-79
2022/04/14 06:42:22;;;;;;;31.48;16.80;;;11.20;99.90;;;;;;5057422;28;20059;-79
2022/04/14 06:44:48;;;;;;;27.02;16.42;;;11.20;99.90;;;;;;5075302;28;20032;-78
2022/04/14 06:47:14;;;;;;;26.83;15.93;;;11.30;99.90;;;;;;5074284;28;20100;-77
2022/04/14 06:49:40;;;;;;;28.92;15.80;;;11.40;99.90;;;;;;5063074;28;20066;-78
2022/04/14 06:52:06;;;;;;;23.63;13.25;;;11.50;99.90;;;;;;5079464;28;20043;-79
2022/04/14 06:54:31;;;;;;;23.33;14.18;;;11.50;99.90;;;;;;5111651;28;20032;-79
2022/04/14 06:56:57;;;;;;;29.40;15.00;;;11.70;99.90;;;;;;5110099;28;20172;-79
2022/04/14 06:59:23;;;;;;;22.85;14.15;;;11.80;99.90;;;;;;5090700;28;20329;-79
2022/04/14 07:01:48;;;;;;;20.88;12.88;;;11.90;99.90;;;;;;5074899;28;20048;-79
2022/04/14 07:04:14;;;;;;;27.05;14.20;;;11.90;99.90;;;;;;5108332;28;20050;-79
2022/04/14 07:06:40;;;;;;;22.20;14.43;;;12.00;99.90;;;;;;5109896;28;20059;-79
2022/04/14 07:09:05;;;;;;;23.60;13.70;;;12.10;99.90;;;;;;5073025;28;20040;-78
2022/04/14 07:11:31;;;;;;;22.23;12.15;;;12.10;99.90;;;;;;5073948;28;20071;-79
2022/04/14 07:13:58;;;;;;;22.00;12.85;;;12.90;99.90;;;;;;5090506;28;20043;-80
2022/04/14 07:16:25;;;;;;;18.42;13.20;;;12.30;99.90;;;;;;5090139;28;20059;-80
2022/04/14 07:18:50;;;;;;;18.63;12.30;;;12.40;99.90;;;;;;5058620;28;20044;-78
2022/04/14 07:21:16;;;;;;;22.05;12.30;;;12.60;99.90;;;;;;5107863;28;20043;-78
2022/04/14 07:23:42;;;;;;;21.08;13.10;;;12.60;99.90;;;;;;5058194;28;20406;-80
2022/04/14 07:26:08;;;;;;;22.90;13.35;;;12.70;99.90;;;;;;5056458;28;20108;-79
2022/04/14 07:28:34;;;;;;;20.08;12.52;;;12.80;99.90;;;;;;5090997;28;20055;-79
2022/04/14 07:31:01;;;;;;;22.23;12.88;;;13.20;99.90;;;;;;5090817;28;20477;-79
2022/04/14 07:33:27;;;;;;;20.80;13.10;;;13.00;99.90;;;;;;5089647;28;20494;-79
2022/04/14 07:35:53;;;;;;;21.15;14.32;;;13.10;99.90;;;;;;5109832;28;20044;-79
2022/04/14 07:38:19;;;;;;;24.73;14.20;;;13.20;99.90;;;;;;5073342;28;20031;-78
2022/04/14 07:40:45;;;;;;;19.48;14.05;;;13.30;99.90;;;;;;5092226;28;20177;-79
2022/04/14 07:43:11;;;;;;;22.40;14.10;;;13.30;99.90;;;;;;5056017;28;20498;-78
2022/04/14 07:45:38;;;;;;;16.95;12.30;;;13.50;99.90;;;;;;5090392;28;20044;-79
2022/04/14 07:48:05;;;;;;;18.02;13.10;;;13.50;99.90;;;;;;5108860;28;20050;-78
2022/04/14 07:50:32;;;;;;;22.15;14.35;;;13.60;99.90;;;;;;5090384;28;20047;-78
2022/04/14 07:52:59;;;;;;;21.23;13.35;;;13.70;99.90;;;;;;5092267;28;20052;-79
2022/04/14 07:55:34;;;;;;;17.15;12.40;;;13.70;99.90;;;;;;5089698;28;20490;-79
2022/04/14 07:58:04;;;;;;;21.02;13.00;;;13.80;99.90;;;;;;5092157;28;20494;-78
2022/04/14 08:00:30;;;;;;;18.17;12.73;;;13.80;99.90;;;;;;5073437;28;20136;-79
2022/04/14 08:02:58;;;;;;;17.92;12.68;;;14.00;99.90;;;;;;5091438;28;20043;-78
2022/04/14 08:05:34;;;;;;;18.02;12.70;;;14.00;99.90;;;;;;5109709;28;20047;-78
2022/04/14 08:08:03;;;;;;;20.13;12.98;;;14.10;99.90;;;;;;5089366;28;20059;-78
2022/04/14 08:10:29;;;;;;;17.95;12.73;;;14.30;99.90;;;;;;5109947;28;20032;-78
2022/04/14 08:12:55;;;;;;;20.35;12.48;;;14.30;99.90;;;;;;5107957;28;20045;-78
2022/04/14 08:15:21;;;;;;;17.05;11.57;;;14.40;99.90;;;;;;5091332;28;20042;-78
2022/04/14 08:17:46;;;;;;;16.00;11.63;;;14.60;99.90;;;;;;5090258;28;20102;-78
2022/04/14 08:20:14;;;;;;;21.85;13.15;;;15.40;99.90;;;;;;5090773;28;20398;-78
2022/04/14 08:22:51;;;;;;;18.00;12.88;;;14.80;99.90;;;;;;5057948;28;20055;-79
2022/04/14 08:25:22;;;;;;;21.83;11.57;;;14.90;99.90;;;;;;5089596;28;20064;-79
2022/04/14 08:27:49;;;;;;;16.92;10.63;;;15.10;99.90;;;;;;5112030;28;20035;-79
2022/04/14 08:30:17;;;;;;;15.13;10.70;;;15.20;99.90;;;;;;5077971;28;20099;-79
2022/04/14 08:32:44;;;;;;;14.57;11.65;;;15.60;99.90;;;;;;5080767;28;20482;-79
2022/04/14 08:35:12;;;;;;;16.65;11.30;;;15.60;99.90;;;;;;5076360;28;20052;-78
2022/04/14 08:37:38;;;;;;;16.20;10.88;;;15.80;99.90;;;;;;5072947;28;20473;-78
2022/04/14 08:40:10;;;;;;;17.55;11.90;;;15.80;99.90;;;;;;5091019;28;20054;-79
2022/04/14 08:42:51;;;;;;;17.83;11.07;;;16.00;99.90;;;;;;5072577;28;20415;-78
2022/04/14 08:45:17;;;;;;;16.25;10.05;;;16.10;99.90;;;;;;5073414;28;20079;-76
2022/04/14 08:47:43;;;;;;;14.82;10.38;;;16.20;99.90;;;;;;5108381;28;20422;-77
2022/04/14 08:50:13;;;;;;;14.60;9.93;;;16.40;99.90;;;;;;5108399;28;20475;-78
2022/04/14 08:52:40;;;;;;;14.02;9.77;;;16.60;99.90;;;;;;5074832;28;20063;-78
2022/04/14 08:55:09;;;;;;;15.30;9.60;;;16.70;99.90;;;;;;5106910;28;20046;-78
2022/04/14 08:57:35;;;;;;;14.90;11.20;;;16.90;99.90;;;;;;5090495;28;20051;-78
2022/04/14 09:00:05;;;;;;;15.98;10.32;;;17.00;99.90;;;;;;5106976;28;20050;-79
2022/04/14 09:02:32;;;;;;;15.13;9.63;;;17.10;99.90;;;;;;5090012;28;20044;-76
2022/04/14 09:04:58;;;;;;;12.77;8.82;;;16.10;99.90;;;;;;5108382;28;20380;-78
2022/04/14 09:07:25;;;;;;;10.68;7.90;;;17.10;99.90;;;;;;5072656;28;20048;-77
2022/04/14 09:09:51;;;;;;;10.18;7.18;;;17.10;99.90;;;;;;5090742;28;20094;-77
2022/04/14 09:12:18;;;;;;;10.57;7.38;;;17.10;99.90;;;;;;5071556;28;20035;-77
2022/04/14 09:14:47;;;;;;;11.30;7.50;;;17.40;99.90;;;;;;5109099;28;20039;-78
2022/04/14 09:17:13;;;;;;;11.23;8.35;;;17.10;99.90;;;;;;5089351;28;20411;-78
2022/04/14 09:19:41;;;;;;;11.88;7.25;;;17.30;99.90;;;;;;5089484;28;20083;-78
2022/04/14 09:22:13;;;;;;;12.10;6.38;;;17.40;99.90;;;;;;5056965;28;20041;-79
2022/04/14 09:24:50;;;;;;;13.38;6.93;;;17.50;99.90;;;;;;5071574;28;20054;-77
2022/04/14 09:27:42;;;;;;;10.18;6.50;;;17.50;99.90;;;;;;5109300;28;20079;-77
2022/04/14 09:30:08;;;;;;;8.43;6.10;;;17.50;99.90;;;;;;5066792;28;20362;-78
2022/04/14 09:32:44;;;;;;;12.70;6.22;;;17.70;99.90;;;;;;5108759;28;20051;-78
2022/04/14 09:35:19;;;;;;;11.85;6.70;;;17.90;99.90;;;;;;5111537;28;20335;-77
2022/04/14 09:37:45;;;;;;;9.52;5.45;;;18.10;99.90;;;;;;5057371;28;20051;-78
2022/04/14 09:40:12;;;;;;;9.32;6.55;;;18.20;99.90;;;;;;5077216;28;20486;-78
2022/04/14 09:42:40;;;;;;;7.22;5.40;;;18.40;99.90;;;;;;5110294;28;20120;-77
2022/04/14 09:45:19;;;;;;;9.73;6.10;;;18.50;99.90;;;;;;5111792;28;20047;-78
2022/04/14 09:47:45;;;;;;;10.20;4.93;;;18.40;99.90;;;;;;5092764;28;20150;-78
2022/04/14 09:50:32;;;;;;;11.50;5.40;;;18.20;99.90;;;;;;5091672;28;20051;-79
2022/04/14 09:53:19;;;;;;;11.43;5.68;;;18.00;99.90;;;;;;5111810;28;20053;-78
2022/04/14 09:55:50;;;;;;;9.45;5.35;;;17.80;99.90;;;;;;5110175;28;20044;-78
2022/04/14 09:58:17;;;;;;;14.57;7.18;;;17.60;99.90;;;;;;5110917;28;20181;-78
2022/04/14 10:00:53;;;;;;;11.07;5.75;;;17.70;99.90;;;;;;5092581;28;20055;-78
2022/04/14 10:03:20;;;;;;;9.80;6.47;;;17.90;99.90;;;;;;5073986;28;20079;-78
2022/04/14 10:05:48;;;;;;;12.32;6.00;;;18.00;99.90;;;;;;5093610;28;20496;-78
2022/04/14 10:08:14;;;;;;;11.20;6.30;;;18.10;99.90;;;;;;5109509;28;20043;-78
2022/04/14 10:10:42;;;;;;;10.77;5.80;;;18.20;99.90;;;;;;5094924;28;20576;-77
2022/04/14 10:13:11;;;;;;;10.85;6.18;;;18.40;99.90;;;;;;5112693;28;20483;-78
2022/04/14 10:15:39;;;;;;;9.20;6.28;;;18.70;99.90;;;;;;5094203;28;20039;-78
2022/04/14 10:18:16;;;;;;;8.65;6.22;;;19.00;99.90;;;;;;5114650;28;20095;-78
2022/04/14 10:20:44;;;;;;;9.35;5.78;;;19.10;99.90;;;;;;5113598;28;20126;-78
2022/04/14 10:23:13;;;;;;;7.93;5.20;;;19.20;99.90;;;;;;5093541;28;20123;-79
2022/04/14 10:25:39;;;;;;;5.97;3.45;;;19.10;99.90;;;;;;5109741;28;20131;-77
2022/04/14 10:28:07;;;;;;;4.93;3.47;;;19.10;99.90;;;;;;5091910;28;20058;-78
2022/04/14 10:30:33;;;;;;;5.70;3.30;;;18.80;99.90;;;;;;5110756;28;20043;-77
2022/04/14 10:33:00;;;;;;;12.68;3.58;;;18.60;99.90;;;;;;5108841;28;20043;-76
2022/04/14 10:35:27;;;;;;;4.68;2.33;;;18.80;99.90;;;;;;5075575;28;20450;-76
2022/04/14 10:38:06;;;;;;;7.35;3.38;;;19.00;99.60;;;;;;5090231;28;20100;-77
2022/04/14 10:40:33;;;;;;;7.55;3.58;;;19.20;98.00;;;;;;5092074;28;20052;-76
2022/04/14 10:42:59;;;;;;;4.80;3.10;;;19.10;97.80;;;;;;5090991;28;20096;-77
2022/04/14 10:45:25;;;;;;;6.07;3.42;;;19.00;98.30;;;;;;5090264;28;20040;-79
2022/04/14 10:47:51;;;;;;;6.45;3.95;;;18.80;98.60;;;;;;5092365;28;20055;-78
2022/04/14 10:50:20;;;;;;;5.30;3.10;;;18.80;98.30;;;;;;5108442;28;20398;-78
2022/04/14 10:53:09;;;;;;;4.22;2.53;;;18.70;97.50;;;;;;5110933;28;20051;-77
2022/04/14 10:55:37;;;;;;;6.93;4.07;;;18.80;95.60;;;;;;5090916;28;20110;-76
2022/04/14 10:58:03;;;;;;;6.70;4.10;;;18.90;97.90;;;;;;5109639;28;20082;-77
2022/04/14 11:00:33;;;;;;;10.38;4.90;;;18.90;97.30;;;;;;5110314;28;20108;-77
2022/04/14 11:03:03;;;;;;;9.45;5.70;;;18.70;98.00;;;;;;5089966;28;20047;-77
2022/04/14 11:05:49;;;;;;;6.03;5.00;;;18.70;99.20;;;;;;5091697;28;20479;-77
2022/04/14 11:08:32;;;;;;;7.30;4.65;;;18.80;99.00;;;;;;5090158;28;20325;-77
2022/04/14 11:11:14;;;;;;;5.97;3.90;;;19.10;98.20;;;;;;5074190;28;20501;-77
2022/04/14 11:13:52;;;;;;;6.85;3.10;;;19.30;96.00;;;;;;5091416;28;20092;-77
2022/04/14 11:16:40;;;;;;;4.03;2.45;;;19.10;93.60;;;;;;5072767;28;20061;-77
2022/04/14 11:19:18;;;;;;;5.32;2.60;;;19.00;93.50;;;;;;5074132;28;20047;-77
2022/04/14 11:22:02;;;;;;;7.43;3.95;;;19.00;94.10;;;;;;5091095;28;20059;-77
2022/04/14 11:24:40;;;;;;;6.22;3.10;;;19.00;94.60;;;;;;5073162;28;20048;-77
2022/04/14 11:27:26;;;;;;;5.82;3.75;;;19.20;92.80;;;;;;5110220;28;20058;-78
2022/04/14 11:29:57;;;;;;;5.10;3.00;;;19.50;92.10;;;;;;5108800;28;20040;-78
2022/04/14 11:32:35;;;;;;;5.55;2.80;;;19.40;93.80;;;;;;5074692;28;20651;-78
2022/04/14 11:35:08;;;;;;;6.15;2.90;;;19.50;92.30;;;;;;5091320;28;20373;-78
2022/04/14 11:37:42;;;;;;;4.45;1.85;;;19.70;91.90;;;;;;5089199;28;20059;-77
2022/04/14 11:40:24;;;;;;;4.38;2.42;;;19.70;88.90;;;;;;5091281;28;20043;-78
2022/04/14 11:42:52;;;;;;;3.22;1.67;;;19.80;86.50;;;;;;5108997;28;20044;-78
2022/04/14 11:45:28;;;;;;;4.43;1.88;;;19.80;88.70;;;;;;5108009;28;20040;-78
2022/04/14 11:48:00;;;;;;;5.35;1.65;;;19.80;80.80;;;;;;5110607;28;20616;-78
2022/04/14 11:50:27;;;;;;;3.47;1.60;;;19.90;86.00;;;;;;5089424;28;20127;-78
2022/04/14 11:52:57;;;;;;;6.28;2.78;;;19.90;85.40;;;;;;5109851;28;20044;-78
2022/04/14 11:55:36;;;;;;;3.80;2.55;;;19.90;84.80;;;;;;5107741;28;20040;-78
2022/04/14 11:58:11;;;;;;;5.00;2.53;;;19.90;81.50;;;;;;5107806;28;20099;-78
2022/04/14 12:00:48;;;;;;;6.25;2.58;;;20.00;83.80;;;;;;5109452;28;20047;-78
2022/04/14 12:03:15;;;;;;;7.13;2.17;;;20.00;85.20;;;;;;5108027;28;20082;-78
2022/04/14 12:05:51;;;;;;;5.05;2.47;;;20.20;88.40;;;;;;5092675;28;20048;-77
2022/04/14 12:08:17;;;;;;;5.57;2.13;;;20.30;81.40;;;;;;5074281;28;20150;-78
2022/04/14 12:10:44;;;;;;;6.63;2.45;;;20.20;85.80;;;;;;5091484;28;20036;-78
2022/04/14 12:13:11;;;;;;;4.78;2.28;;;20.10;86.10;;;;;;5109418;28;20036;-78
2022/04/14 12:15:38;;;;;;;4.80;2.70;;;20.10;87.50;;;;;;5071752;28;20128;-77
2022/04/14 12:18:11;;;;;;;7.18;3.60;;;20.10;88.70;;;;;;5090649;28;20035;-77
2022/04/14 12:20:43;;;;;;;7.35;3.13;;;20.00;87.30;;;;;;5088903;28;20051;-77
2022/04/14 12:23:10;;;;;;;6.30;2.50;;;19.90;86.80;;;;;;5090422;28;20390;-77
2022/04/14 12:25:37;;;;;;;5.80;2.78;;;19.60;90.80;;;;;;5089393;28;20051;-77
2022/04/14 12:28:06;;;;;;;5.07;2.88;;;19.50;91.00;;;;;;5088791;28;20490;-77
2022/04/14 12:30:33;;;;;;;7.00;3.35;;;19.30;90.80;;;;;;5090198;28;20209;-76
2022/04/14 12:33:06;;;;;;;8.25;4.30;;;19.20;92.00;;;;;;5087882;28;20096;-77
2022/04/14 12:35:40;;;;;;;9.23;3.47;;;19.00;92.60;;;;;;5073188;28;20062;-78
2022/04/14 12:38:12;;;;;;;5.75;3.53;;;18.90;94.20;;;;;;5071979;28;20047;-77
2022/04/14 12:40:51;;;;;;;5.93;4.20;;;18.90;94.40;;;;;;5071804;28;20043;-76